createdAt,value
2023-03-06T00:00:06.919Z,489.00
2023-03-06T00:04:06.916Z,496.00
2023-03-06T00:08:06.887Z,492.00
2023-03-06T00:12:06.828Z,491.00
2023-03-06T00:16:06.819Z,490.00
2023-03-06T00:20:06.779Z,490.00
2023-03-06T00:24:06.689Z,489.00
2023-03-06T00:28:06.737Z,493.00
2023-03-06T00:32:06.922Z,489.00
2023-03-06T00:36:07.137Z,484.00
2023-03-06T00:40:07.122Z,488.00
2023-03-06T00:44:07.062Z,491.00
2023-03-06T00:48:07.036Z,493.00
2023-03-06T00:52:09.035Z,494.00
2023-03-06T00:56:06.977Z,492.00
2023-03-06T01:00:06.937Z,492.00
2023-03-06T01:04:07.090Z,490.00
2023-03-06T01:08:07.244Z,488.00
2023-03-06T01:12:07.415Z,490.00
2023-03-06T01:16:07.667Z,494.00
2023-03-06T01:20:07.807Z,497.00
2023-03-06T01:24:07.985Z,492.00
2023-03-06T01:28:08.195Z,494.00
2023-03-06T01:32:08.371Z,490.00
2023-03-06T01:36:08.539Z,494.00
2023-03-06T01:40:08.682Z,494.00
2023-03-06T01:44:08.890Z,500.00
2023-03-06T01:48:09.036Z,497.00
2023-03-06T01:52:09.152Z,495.00
2023-03-06T01:56:09.321Z,493.00
2023-03-06T02:00:09.506Z,494.00
2023-03-06T02:04:09.591Z,496.00
2023-03-06T02:08:09.679Z,487.00
2023-03-06T02:12:09.764Z,488.00
2023-03-06T02:16:09.866Z,489.00
2023-03-06T02:20:09.942Z,487.00
2023-03-06T02:24:10.032Z,489.00
2023-03-06T02:28:10.098Z,493.00
2023-03-06T02:32:10.149Z,494.00
2023-03-06T02:36:10.190Z,492.00
2023-03-06T02:40:10.312Z,491.00
2023-03-06T02:44:10.268Z,491.00
2023-03-06T02:48:10.281Z,487.00
2023-03-06T02:52:10.313Z,489.00
2023-03-06T02:56:10.416Z,489.00
2023-03-06T03:00:10.439Z,493.00
2023-03-06T03:04:10.529Z,493.00
2023-03-06T03:08:10.507Z,492.00
2023-03-06T03:12:10.525Z,494.00
2023-03-06T03:16:10.625Z,493.00
2023-03-06T03:20:10.622Z,499.00
2023-03-06T03:24:10.600Z,495.00
2023-03-06T03:28:10.632Z,491.00
2023-03-06T03:32:10.750Z,494.00
2023-03-06T03:36:10.761Z,494.00
2023-03-06T03:40:10.846Z,498.00
2023-03-06T03:44:10.857Z,495.00
2023-03-06T03:48:10.928Z,499.00
2023-03-06T03:52:10.952Z,494.00
2023-03-06T03:56:10.971Z,498.00
2023-03-06T04:00:11.006Z,495.00
2023-03-06T04:04:11.075Z,494.00
2023-03-06T04:08:11.148Z,487.00
2023-03-06T04:12:11.137Z,493.00
2023-03-06T04:16:11.218Z,493.00
2023-03-06T04:20:11.307Z,493.00
2023-03-06T04:24:11.441Z,494.00
2023-03-06T04:28:11.519Z,494.00
2023-03-06T04:32:11.741Z,493.00
2023-03-06T04:36:11.964Z,496.00
2023-03-06T04:40:12.167Z,496.00
2023-03-06T04:44:12.090Z,494.00
2023-03-06T04:48:12.084Z,495.00
2023-03-06T04:52:12.020Z,494.00
2023-03-06T04:56:11.988Z,498.00
2023-03-06T05:00:11.956Z,498.00
2023-03-06T05:04:11.948Z,494.00
2023-03-06T05:08:11.898Z,491.00
2023-03-06T05:12:11.873Z,487.00
2023-03-06T05:16:11.856Z,489.00
2023-03-06T05:20:11.844Z,485.00
2023-03-06T05:24:11.817Z,486.00
2023-03-06T05:28:11.797Z,489.00
2023-03-06T05:32:11.891Z,487.00
2023-03-06T05:36:11.686Z,488.00
2023-03-06T05:40:11.674Z,485.00
2023-03-06T05:44:11.617Z,486.00
2023-03-06T05:48:11.595Z,485.00
2023-03-06T05:52:11.565Z,486.00
2023-03-06T05:56:11.559Z,487.00
2023-03-06T06:00:11.484Z,489.00
2023-03-06T06:04:11.684Z,490.00
2023-03-06T06:08:11.664Z,491.00
2023-03-06T06:12:11.626Z,492.00
2023-03-06T06:16:11.726Z,493.00
2023-03-06T06:20:11.553Z,493.00
2023-03-06T06:24:11.494Z,491.00
2023-03-06T06:28:11.458Z,494.00
2023-03-06T06:32:11.544Z,493.00
2023-03-06T06:36:11.399Z,499.00
2023-03-06T06:40:11.341Z,648.00
2023-03-06T06:44:11.582Z,679.00
2023-03-06T06:48:11.700Z,739.00
2023-03-06T06:52:12.118Z,822.00
2023-03-06T06:56:11.711Z,985.00
2023-03-06T07:00:12.090Z,1171.00
2023-03-06T07:04:12.241Z,1308.00
2023-03-06T07:08:12.095Z,1405.00
2023-03-06T07:12:11.706Z,1490.00
2023-03-06T07:16:12.175Z,1587.00
2023-03-06T07:20:11.618Z,1681.00
2023-03-06T07:24:11.602Z,1786.00
2023-03-06T07:28:11.577Z,1975.00
2023-03-06T07:32:11.545Z,2020.00
2023-03-06T07:36:12.928Z,2154.00
2023-03-06T07:40:11.574Z,2245.00
2023-03-06T07:44:11.664Z,2331.00
2023-03-06T07:48:12.107Z,2436.00
2023-03-06T07:52:12.141Z,2312.00
2023-03-06T07:56:12.145Z,2082.00
2023-03-06T08:00:12.149Z,1100.00
2023-03-06T08:04:12.291Z,1394.00
2023-03-06T08:08:12.264Z,1654.00
2023-03-06T08:12:12.605Z,1812.00
2023-03-06T08:16:12.186Z,1927.00
2023-03-06T08:20:12.124Z,2060.00
2023-03-06T08:24:12.164Z,2205.00
2023-03-06T08:28:12.060Z,2288.00
2023-03-06T08:32:12.051Z,2358.00
2023-03-06T08:36:11.963Z,2469.00
2023-03-06T08:40:12.222Z,2563.00
2023-03-06T08:44:12.165Z,2596.00
2023-03-06T08:48:11.857Z,2595.00
2023-03-06T08:52:12.139Z,2582.00
2023-03-06T08:56:11.757Z,2625.00
2023-03-06T09:00:12.159Z,2664.00
2023-03-06T09:04:11.717Z,2705.00
2023-03-06T09:08:12.148Z,2751.00
2023-03-06T09:12:11.605Z,2802.00
2023-03-06T09:16:11.670Z,2829.00
2023-03-06T09:20:11.557Z,2872.00
2023-03-06T09:24:11.521Z,2921.00
2023-03-06T09:28:12.316Z,2927.00
2023-03-06T09:32:12.223Z,2918.00
2023-03-06T09:36:11.399Z,2958.00
2023-03-06T09:40:11.660Z,2940.00
2023-03-06T09:44:11.671Z,2952.00
2023-03-06T09:48:11.670Z,2974.00
2023-03-06T09:52:11.703Z,2924.00
2023-03-06T09:56:11.245Z,1758.00
2023-03-06T10:00:12.147Z,1866.00
2023-03-06T10:04:11.193Z,1791.00
2023-03-06T10:08:11.669Z,1871.00
2023-03-06T10:12:11.260Z,1907.00
2023-03-06T10:16:11.362Z,1954.00
2023-03-06T10:20:11.670Z,1987.00
2023-03-06T10:24:11.293Z,2049.00
2023-03-06T10:28:11.686Z,2095.00
2023-03-06T10:32:11.308Z,2140.00
2023-03-06T10:36:11.704Z,2178.00
2023-03-06T10:40:11.753Z,2198.00
2023-03-06T10:44:11.690Z,2266.00
2023-03-06T10:48:11.528Z,2329.00
2023-03-06T10:52:11.716Z,1963.00
2023-03-06T10:56:11.692Z,886.00
2023-03-06T11:00:11.740Z,1273.00
2023-03-06T11:04:11.954Z,1605.00
2023-03-06T11:08:12.099Z,1681.00
2023-03-06T11:12:12.210Z,1753.00
2023-03-06T11:16:12.205Z,1821.00
2023-03-06T11:20:12.189Z,1918.00
2023-03-06T11:24:12.230Z,2028.00
2023-03-06T11:28:12.176Z,2137.00
2023-03-06T11:32:12.340Z,2269.00
2023-03-06T11:36:12.410Z,2393.00
2023-03-06T11:40:12.714Z,2423.00
2023-03-06T11:44:12.767Z,2368.00
2023-03-06T11:48:12.251Z,2334.00
2023-03-06T11:52:12.351Z,2284.00
2023-03-06T11:56:12.344Z,2271.00
2023-03-06T12:00:12.402Z,2251.00
2023-03-06T12:04:12.483Z,2254.00
2023-03-06T12:08:12.557Z,2255.00
2023-03-06T12:12:12.698Z,2239.00
2023-03-06T12:16:12.702Z,2233.00
2023-03-06T12:20:12.750Z,2217.00
2023-03-06T12:24:12.834Z,2196.00
2023-03-06T12:28:12.964Z,2185.00
2023-03-06T12:32:13.443Z,2183.00
2023-03-06T12:36:13.240Z,2173.00
2023-03-06T12:40:13.226Z,2154.00
2023-03-06T12:44:13.228Z,2148.00
2023-03-06T12:48:13.317Z,2130.00
2023-03-06T12:52:16.052Z,2118.00
2023-03-06T12:56:13.326Z,2109.00
2023-03-06T13:00:13.299Z,2092.00
2023-03-06T13:04:13.277Z,2069.00
2023-03-06T13:08:13.201Z,2069.00
2023-03-06T13:12:13.269Z,2064.00
2023-03-06T13:16:13.461Z,2067.00
2023-03-06T13:20:13.702Z,2070.00
2023-03-06T13:24:13.773Z,2064.00
2023-03-06T13:28:13.588Z,2068.00
2023-03-06T13:32:13.828Z,2058.00
2023-03-06T13:36:13.648Z,2043.00
2023-03-06T13:40:13.713Z,2026.00
2023-03-06T13:44:13.750Z,2021.00
2023-03-06T13:48:37.652Z,1995.00
2023-03-06T13:52:14.783Z,1965.00
2023-03-06T13:56:13.753Z,1959.00
2023-03-06T14:00:13.723Z,1947.00
2023-03-06T14:04:13.677Z,1927.00
2023-03-06T14:08:13.625Z,1900.00
2023-03-06T14:12:13.582Z,1890.00
2023-03-06T14:16:13.731Z,1878.00
2023-03-06T14:20:13.762Z,1858.00
2023-03-06T14:24:13.809Z,1842.00
2023-03-06T14:28:14.425Z,1822.00
2023-03-06T14:32:13.986Z,1804.00
2023-03-06T14:36:14.032Z,1781.00
2023-03-06T14:40:14.061Z,1767.00
2023-03-06T14:44:14.124Z,1757.00
2023-03-06T14:48:14.179Z,1742.00
2023-03-06T14:52:14.257Z,1726.00
2023-03-06T14:56:14.324Z,1714.00
2023-03-06T15:00:14.350Z,1704.00
2023-03-06T15:04:14.787Z,1693.00
2023-03-06T15:08:14.396Z,1684.00
2023-03-06T15:12:14.432Z,1672.00
2023-03-06T15:16:14.497Z,1654.00
2023-03-06T15:20:14.530Z,1636.00
2023-03-06T15:24:14.797Z,1633.00
2023-03-06T15:28:14.548Z,1619.00
2023-03-06T15:32:14.557Z,1613.00
2023-03-06T15:36:14.583Z,1604.00
2023-03-06T15:40:14.584Z,1596.00
2023-03-06T15:44:14.610Z,1581.00
2023-03-06T15:48:14.657Z,1575.00
2023-03-06T15:52:14.677Z,1576.00
2023-03-06T15:56:14.700Z,1562.00
2023-03-06T16:00:26.689Z,1563.00
2023-03-06T16:04:15.734Z,1555.00
2023-03-06T16:08:14.709Z,1550.00
2023-03-06T16:12:16.331Z,1548.00
2023-03-06T16:16:14.617Z,1549.00
2023-03-06T16:20:14.590Z,1556.00
2023-03-06T16:24:14.608Z,1549.00
2023-03-06T16:28:14.738Z,1543.00
2023-03-06T16:32:14.862Z,1542.00
2023-03-06T16:36:14.907Z,1523.00
2023-03-06T16:40:15.001Z,1524.00
2023-03-06T16:44:15.127Z,1524.00
2023-03-06T16:48:15.240Z,1523.00
2023-03-06T16:52:15.371Z,1517.00
2023-03-06T16:56:15.481Z,1515.00
2023-03-06T17:00:15.663Z,1514.00
2023-03-06T17:04:15.748Z,1512.00
2023-03-06T17:08:15.891Z,1506.00
2023-03-06T17:12:15.992Z,1504.00
2023-03-06T17:16:16.204Z,1503.00
2023-03-06T17:20:16.274Z,1500.00
2023-03-06T17:24:16.408Z,1507.00
2023-03-06T17:28:16.557Z,1511.00
2023-03-06T17:32:16.725Z,1510.00
2023-03-06T17:36:16.819Z,1509.00
2023-03-06T17:40:16.997Z,1513.00
2023-03-06T17:44:17.163Z,1509.00
2023-03-06T17:48:17.297Z,1494.00
2023-03-06T17:52:17.509Z,1499.00
2023-03-06T17:56:17.633Z,1491.00
2023-03-06T18:00:17.822Z,1484.00
2023-03-06T18:04:18.000Z,1483.00
2023-03-06T18:08:18.250Z,1480.00
2023-03-06T18:12:18.444Z,1468.00
2023-03-06T18:16:18.717Z,1471.00
2023-03-06T18:20:18.846Z,1467.00
2023-03-06T18:24:19.027Z,1463.00
2023-03-06T18:28:19.220Z,1463.00
2023-03-06T18:32:19.467Z,1464.00
2023-03-06T18:36:19.676Z,1452.00
2023-03-06T18:40:19.852Z,1444.00
2023-03-06T18:44:19.834Z,1444.00
2023-03-06T18:48:19.814Z,1439.00
2023-03-06T18:52:19.769Z,1427.00
2023-03-06T18:56:19.742Z,1416.00
2023-03-06T19:00:19.721Z,1417.00
2023-03-06T19:04:20.447Z,1411.00
2023-03-06T19:08:19.612Z,1400.00
2023-03-06T19:12:19.603Z,1402.00
2023-03-06T19:16:19.608Z,1397.00
2023-03-06T19:20:19.540Z,1386.00
2023-03-06T19:24:19.518Z,1377.00
2023-03-06T19:28:19.475Z,1370.00
2023-03-06T19:32:19.519Z,1372.00
2023-03-06T19:36:19.397Z,1364.00
2023-03-06T19:40:19.351Z,1358.00
2023-03-06T19:44:19.306Z,1351.00
2023-03-06T19:48:21.182Z,1347.00
2023-03-06T19:52:19.266Z,1338.00
2023-03-06T19:56:19.202Z,1334.00
2023-03-06T20:00:19.162Z,1331.00
2023-03-06T20:04:19.175Z,1328.00
2023-03-06T20:08:19.085Z,1322.00
2023-03-06T20:12:19.061Z,1310.00
2023-03-06T20:16:19.036Z,1298.00
2023-03-06T20:20:18.992Z,1292.00
2023-03-06T20:24:18.974Z,1298.00
2023-03-06T20:28:18.926Z,1299.00
2023-03-06T20:32:18.906Z,1289.00
2023-03-06T20:36:18.817Z,1282.00
2023-03-06T20:40:18.883Z,1278.00
2023-03-06T20:44:18.749Z,1275.00
2023-03-06T20:48:18.741Z,1270.00
2023-03-06T20:52:18.720Z,1270.00
2023-03-06T20:56:18.643Z,1264.00
2023-03-06T21:00:18.619Z,1262.00
2023-03-06T21:04:18.557Z,1251.00
2023-03-06T21:08:18.587Z,1239.00
2023-03-06T21:12:18.486Z,1237.00
2023-03-06T21:16:18.492Z,1229.00
2023-03-06T21:20:18.443Z,1229.00
2023-03-06T21:24:20.932Z,1224.00
2023-03-06T21:28:18.376Z,1215.00
2023-03-06T21:32:18.367Z,1213.00
2023-03-06T21:36:18.301Z,1214.00
2023-03-06T21:40:18.268Z,1204.00
2023-03-06T21:44:18.217Z,1197.00
2023-03-06T21:48:18.199Z,1192.00
2023-03-06T21:52:18.146Z,1190.00
2023-03-06T21:56:18.107Z,1182.00
2023-03-06T22:00:18.113Z,1180.00
2023-03-06T22:04:18.088Z,1166.00
2023-03-06T22:08:18.007Z,1170.00
2023-03-06T22:12:17.973Z,1162.00
2023-03-06T22:16:17.991Z,1160.00
2023-03-06T22:20:17.897Z,1155.00
2023-03-06T22:24:17.863Z,1152.00
2023-03-06T22:28:17.824Z,1148.00
2023-03-06T22:32:17.909Z,1138.00
2023-03-06T22:36:17.885Z,1137.00
2023-03-06T22:40:17.832Z,1127.00
2023-03-06T22:44:17.830Z,1128.00
2023-03-06T22:48:17.756Z,1126.00
2023-03-06T22:52:17.753Z,1114.00
2023-03-06T22:56:17.705Z,1113.00
2023-03-06T23:00:17.661Z,1112.00
2023-03-06T23:04:17.659Z,1113.00
2023-03-06T23:08:17.647Z,1107.00
2023-03-06T23:12:17.576Z,1100.00
2023-03-06T23:16:17.567Z,1101.00
2023-03-06T23:20:17.507Z,1094.00
2023-03-06T23:24:17.578Z,1093.00
2023-03-06T23:28:17.619Z,1085.00
2023-03-06T23:32:17.736Z,1075.00
2023-03-06T23:36:17.749Z,1071.00
2023-03-06T23:40:17.837Z,1071.00
2023-03-06T23:44:17.912Z,1064.00
2023-03-06T23:48:17.959Z,1061.00
2023-03-06T23:52:18.066Z,1056.00
2023-03-06T23:56:18.158Z,1053.00
